Time;durP1;ratioP1;P1;durP2;ratioP2;P2;SDS_P1;SDS_P2;PMS_P1;PMS_P2;Temp;Humidity;BMP_temperature;BMP_pressure;BME280_temperature;BME280_humidity;BME280_pressure;Samples;Min_cycle;Max_cycle;Signal;HPM_P1;HPM_P2
2023/06/16 00:01:09;;;;;;;11.50;7.13;;;;;;;13.11;85.90;93968.50;4997035;28;20071;-58
2023/06/16 00:03:37;;;;;;;10.53;7.03;;;;;;;13.04;85.40;93978.94;5000190;28;20046;-60
2023/06/16 00:06:14;;;;;;;9.95;6.90;;;;;;;12.94;85.33;93978.00;4989163;28;20081;-58
2023/06/16 00:08:44;;;;;;;8.48;6.38;;;;;;;12.87;86.14;93984.44;4987911;28;20058;-55
2023/06/16 00:11:16;;;;;;;7.85;5.93;;;;;;;12.87;85.95;93987.19;4988749;28;20112;-54
2023/06/16 00:13:45;;;;;;;8.50;6.50;;;;;;;12.86;86.47;93982.09;4989508;28;20100;-54
2023/06/16 00:16:19;;;;;;;9.13;6.50;;;;;;;12.81;87.07;93982.63;5010482;28;20068;-53
2023/06/16 00:18:49;;;;;;;61.08;41.50;;;;;;;12.73;89.00;93984.75;5028005;28;20134;-60
2023/06/16 00:21:19;;;;;;;32.60;20.77;;;;;;;12.71;88.34;93984.41;5028085;28;20052;-53
2023/06/16 00:23:46;;;;;;;14.23;8.98;;;;;;;12.71;88.35;93984.41;5028552;28;20037;-54
2023/06/16 00:26:13;;;;;;;9.68;7.43;;;;;;;12.64;88.01;93979.84;4988993;28;20039;-54
2023/06/16 00:28:40;;;;;;;10.07;6.77;;;;;;;12.53;87.75;93990.28;4990841;28;20138;-57
2023/06/16 00:31:07;;;;;;;8.45;6.00;;;;;;;12.42;88.75;93990.53;4992036;28;20054;-59
2023/06/16 00:33:34;;;;;;;8.30;6.18;;;;;;;12.44;89.17;93992.88;5010887;28;20094;-54
2023/06/16 00:36:01;;;;;;;8.07;6.20;;;;;;;12.42;89.25;93987.78;5012159;28;20041;-56
2023/06/16 00:38:28;;;;;;;8.77;6.13;;;;;;;12.40;89.46;93987.44;5031614;28;20043;-56
2023/06/16 00:40:55;;;;;;;8.73;6.40;;;;;;;12.26;91.29;93983.00;5031411;28;20041;-54
2023/06/16 00:43:21;;;;;;;7.95;6.10;;;;;;;12.24;91.86;93988.16;5005314;28;20042;-58
2023/06/16 00:45:49;;;;;;;24.02;15.57;;;;;;;12.17;91.67;93989.09;5019572;28;20064;-56
2023/06/16 00:48:16;;;;;;;16.35;9.60;;;;;;;12.18;93.53;93985.13;5016043;28;20064;-61
2023/06/16 00:50:44;;;;;;;12.05;7.95;;;;;;;12.17;92.39;93986.34;5031791;28;20355;-55
2023/06/16 00:53:10;;;;;;;10.20;6.37;;;;;;;12.17;91.96;93980.84;5031071;28;20413;-56
2023/06/16 00:55:37;;;;;;;8.13;5.90;;;;;;;12.15;91.61;93979.69;5031539;28;20053;-53
2023/06/16 00:58:04;;;;;;;9.00;6.18;;;;;;;12.13;91.56;93985.63;5031065;28;20044;-54
2023/06/16 01:00:35;;;;;;;7.57;5.78;;;;;;;12.08;91.21;93979.84;5029981;28;20053;-55
2023/06/16 01:03:04;;;;;;;8.52;6.13;;;;;;;12.07;92.10;93975.53;5008781;28;20054;-54
2023/06/16 01:05:32;;;;;;;8.80;6.47;;;;;;;12.02;92.86;93982.31;4997750;28;20038;-54
2023/06/16 01:08:11;;;;;;;9.18;6.75;;;;;;;12.03;92.36;93978.34;5000652;28;20049;-52
2023/06/16 01:10:45;;;;;;;8.27;6.35;;;;;;;12.03;93.09;93972.84;5025092;28;20033;-58
2023/06/16 01:13:28;;;;;;;8.68;6.28;;;;;;;12.00;93.48;93968.19;5001422;28;20050;-61
2023/06/16 01:15:56;;;;;;;8.80;6.60;;;;;;;12.01;94.11;93971.72;4992485;28;20100;-55
2023/06/16 01:18:25;;;;;;;9.90;6.40;;;;;;;11.94;94.32;93976.16;4991985;28;20043;-56
2023/06/16 01:21:02;;;;;;;9.88;6.53;;;;;;;11.92;94.02;93981.31;4991215;28;20046;-60
2023/06/16 01:24:04;;;;;;;9.38;7.03;;;;;;;11.74;96.08;93972.59;4992100;28;20515;-54
2023/06/16 01:26:34;;;;;;;9.38;6.78;;;;;;;11.76;95.87;93976.47;4990843;28;20070;-55
2023/06/16 01:29:08;;;;;;;8.88;6.63;;;;;;;11.77;96.23;93974.50;4991274;28;20053;-53
2023/06/16 01:31:36;;;;;;;11.17;6.53;;;;;;;11.75;96.85;93974.13;5004157;28;20049;-60
2023/06/16 01:34:05;;;;;;;10.27;6.32;;;;;;;11.77;96.07;93977.25;4991057;28;20034;-59
2023/06/16 01:36:36;;;;;;;9.35;6.80;;;;;;;11.71;96.58;93973.44;4997080;28;20365;-55
2023/06/16 01:39:05;;;;;;;9.88;6.90;;;;;;;11.70;97.84;93971.91;5019905;28;20050;-54
2023/06/16 01:41:32;;;;;;;9.30;6.95;;;;;;;11.67;97.75;93980.97;5030597;28;20041;-57
2023/06/16 01:44:00;;;;;;;10.93;7.30;;;;;;;11.57;99.61;93966.25;5029892;28;20045;-56
2023/06/16 01:46:27;;;;;;;9.40;7.10;;;;;;;11.60;100.00;93968.91;5030573;28;20445;-58
2023/06/16 01:48:55;;;;;;;9.60;7.20;;;;;;;11.58;100.00;93965.81;5029947;28;20045;-55
2023/06/16 01:51:22;;;;;;;11.00;7.30;;;;;;;11.58;100.00;93962.28;5030165;28;20159;-56
2023/06/16 01:53:50;;;;;;;10.55;7.35;;;;;;;11.60;100.00;93959.91;5030144;28;20052;-56
2023/06/16 01:56:17;;;;;;;10.30;7.07;;;;;;;11.59;100.00;93963.84;5029782;28;20857;-62
2023/06/16 01:58:44;;;;;;;12.63;7.10;;;;;;;11.57;100.00;93967.03;5030012;28;20049;-52
2023/06/16 02:01:20;;;;;;;11.23;7.38;;;;;;;11.50;100.00;93963.63;5029921;28;20050;-56
2023/06/16 02:03:54;;;;;;;9.50;6.82;;;;;;;11.47;100.00;93973.47;5026600;28;20096;-58
2023/06/16 02:06:30;;;;;;;9.60;7.10;;;;;;;11.40;100.00;93965.34;5013071;28;20743;-58
2023/06/16 02:09:02;;;;;;;8.87;6.60;;;;;;;11.41;100.00;93972.41;5029427;28;20114;-60
2023/06/16 02:11:30;;;;;;;9.02;6.97;;;;;;;11.42;100.00;93970.44;5030105;28;20171;-61
2023/06/16 02:13:57;;;;;;;9.48;7.18;;;;;;;11.37;100.00;93966.22;5027928;28;20124;-56
2023/06/16 02:16:24;;;;;;;10.45;7.20;;;;;;;11.31;100.00;93965.13;5029459;28;20094;-60
2023/06/16 02:18:53;;;;;;;9.93;7.07;;;;;;;11.31;100.00;93973.38;5029903;28;20047;-55
2023/06/16 02:21:21;;;;;;;10.63;6.90;;;;;;;11.27;100.00;93978.13;5028982;28;20398;-64
2023/06/16 02:23:48;;;;;;;10.00;7.25;;;;;;;11.22;100.00;93978.63;5021824;28;20396;-60
2023/06/16 02:26:14;;;;;;;11.88;7.90;;;;;;;11.11;100.00;93978.81;5006213;28;20041;-55
2023/06/16 02:28:41;;;;;;;10.80;7.72;;;;;;;11.13;100.00;93981.91;5017297;28;20445;-56
2023/06/16 02:31:10;;;;;;;10.52;7.75;;;;;;;11.13;100.00;93982.69;5021527;28;20114;-56
2023/06/16 02:33:36;;;;;;;11.27;7.90;;;;;;;11.10;100.00;93982.75;5009881;28;20057;-57
2023/06/16 02:36:03;;;;;;;10.27;7.57;;;;;;;11.07;100.00;93975.34;4996152;28;20054;-60
2023/06/16 02:38:30;;;;;;;13.05;7.90;;;;;;;11.05;100.00;93977.75;5003365;28;20065;-55
2023/06/16 02:40:57;;;;;;;10.35;7.63;;;;;;;11.04;100.00;93974.19;4989780;28;20054;-55
2023/06/16 02:43:23;;;;;;;11.15;7.60;;;;;;;11.03;100.00;93989.13;5003052;28;20702;-57
2023/06/16 02:45:50;;;;;;;9.87;6.80;;;;;;;11.01;100.00;93988.78;5017630;28;20046;-59
2023/06/16 02:48:17;;;;;;;10.27;7.13;;;;;;;10.94;100.00;93991.63;5028830;28;20044;-56
2023/06/16 02:50:44;;;;;;;9.85;7.18;;;;;;;10.89;100.00;93981.88;5028544;28;20055;-62
2023/06/16 02:53:10;;;;;;;11.27;7.90;;;;;;;10.79;100.00;93994.59;5029078;28;20049;-55
2023/06/16 02:55:38;;;;;;;12.45;8.43;;;;;;;10.14;100.00;93991.13;5029525;28;20439;-55
2023/06/16 02:58:05;;;;;;;10.53;8.07;;;;;;;10.33;100.00;93993.25;5028798;28;20053;-56
2023/06/16 03:00:31;;;;;;;10.20;7.10;;;;;;;10.39;100.00;93996.31;4996299;28;20386;-59
2023/06/16 03:02:58;;;;;;;10.95;7.45;;;;;;;10.47;100.00;93997.00;4989559;28;20455;-57
2023/06/16 03:05:27;;;;;;;11.45;7.80;;;;;;;10.54;100.00;93997.69;5006544;28;20076;-54
2023/06/16 03:07:54;;;;;;;11.90;7.93;;;;;;;10.58;100.00;93997.63;4998018;28;20115;-59
2023/06/16 03:10:21;;;;;;;11.30;7.83;;;;;;;10.55;100.00;93993.75;5019738;28;20071;-54
2023/06/16 03:12:47;;;;;;;11.40;7.20;;;;;;;10.59;100.00;93994.47;5009477;28;20038;-54
2023/06/16 03:15:15;;;;;;;11.82;7.97;;;;;;;10.54;100.00;93989.47;5028405;28;20406;-62
2023/06/16 03:17:43;;;;;;;11.35;8.00;;;;;;;10.62;100.00;94000.31;5028797;28;20152;-61
2023/06/16 03:20:10;;;;;;;10.95;8.32;;;;;;;10.69;100.00;93994.75;5028462;28;20053;-57
2023/06/16 03:22:37;;;;;;;12.40;7.67;;;;;;;10.69;100.00;93992.78;5028759;28;20601;-59
2023/06/16 03:25:04;;;;;;;10.95;7.90;;;;;;;10.61;100.00;93994.06;5028105;28;20045;-54
2023/06/16 03:27:31;;;;;;;10.18;7.82;;;;;;;10.61;100.00;93994.06;5023861;28;20050;-58
2023/06/16 03:29:58;;;;;;;11.55;8.18;;;;;;;10.71;100.00;93995.13;5024912;28;20047;-54
2023/06/16 03:32:25;;;;;;;50.10;29.58;;;;;;;10.83;100.00;93997.28;5001449;28;20076;-59
2023/06/16 03:34:51;;;;;;;18.53;11.30;;;;;;;10.87;100.00;93997.22;5004311;28;20042;-54
2023/06/16 03:37:20;;;;;;;15.32;9.30;;;;;;;10.94;100.00;93999.84;5009331;28;20406;-60
2023/06/16 03:39:47;;;;;;;14.00;8.30;;;;;;;11.00;100.00;93993.47;5008949;28;20048;-55
2023/06/16 03:42:14;;;;;;;13.60;7.75;;;;;;;11.10;100.00;93997.25;5007556;28;20046;-63
2023/06/16 03:44:40;;;;;;;13.82;8.35;;;;;;;11.18;100.00;94000.66;5007386;28;20486;-55
2023/06/16 03:47:07;;;;;;;12.47;7.57;;;;;;;11.16;100.00;93995.56;4996541;28;20064;-56
2023/06/16 03:49:34;;;;;;;10.68;7.95;;;;;;;10.93;100.00;94001.06;5007639;28;20046;-58
2023/06/16 03:52:01;;;;;;;14.80;7.80;;;;;;;10.57;100.00;93998.84;5008466;28;20125;-62
2023/06/16 03:54:27;;;;;;;10.98;7.47;;;;;;;10.73;100.00;93993.50;5004627;28;20042;-60
2023/06/16 03:56:55;;;;;;;11.07;7.75;;;;;;;10.92;100.00;93991.25;5008765;28;20060;-56
2023/06/16 03:59:22;;;;;;;10.83;7.90;;;;;;;11.02;100.00;93993.06;5008955;28;20042;-55
2023/06/16 04:01:51;;;;;;;13.13;8.15;;;;;;;11.18;100.00;93997.91;5008964;28;20067;-56
2023/06/16 04:04:18;;;;;;;11.45;7.85;;;;;;;11.29;100.00;93993.03;5027130;28;20041;-55
2023/06/16 04:06:45;;;;;;;11.35;8.40;;;;;;;11.44;100.00;93996.28;5032466;28;20113;-60
2023/06/16 04:09:11;;;;;;;12.00;8.13;;;;;;;11.57;100.00;94004.72;5031368;28;20060;-55
2023/06/16 04:11:40;;;;;;;12.10;8.03;;;;;;;11.75;100.00;94001.63;5019601;28;20034;-61
2023/06/16 04:14:09;;;;;;;16.33;8.23;;;;;;;11.87;100.00;94003.00;5016072;28;20041;-58
2023/06/16 04:16:37;;;;;;;12.00;8.15;;;;;;;11.98;100.00;93998.09;5032207;28;20041;-59
2023/06/16 04:19:06;;;;;;;10.15;7.50;;;;;;;12.10;100.00;94002.19;4992137;28;20050;-59
2023/06/16 04:21:33;;;;;;;13.10;8.23;;;;;;;12.16;100.00;94001.28;4992905;28;20093;-57
2023/06/16 04:24:01;;;;;;;11.27;8.40;;;;;;;12.31;100.00;93995.47;4992438;28;20054;-59
2023/06/16 04:26:28;;;;;;;13.10;8.15;;;;;;;12.42;100.00;94003.53;5004232;28;20064;-58
2023/06/16 04:28:55;;;;;;;11.90;8.52;;;;;;;12.43;100.00;93999.56;5019531;28;20053;-56
2023/06/16 04:31:22;;;;;;;10.18;8.05;;;;;;;12.08;100.00;94002.63;5013557;28;20382;-54
2023/06/16 04:33:49;;;;;;;13.57;8.95;;;;;;;12.25;100.00;94005.44;5012326;28;20383;-58
2023/06/16 04:36:19;;;;;;;22.77;14.90;;;;;;;12.40;100.00;93995.69;5030002;28;20037;-63
2023/06/16 04:38:46;;;;;;;17.77;11.73;;;;;;;13.81;94.47;94002.25;5032067;28;20110;-59
2023/06/16 04:41:13;;;;;;;15.63;10.30;;;;;;;14.71;86.56;93989.50;5031151;28;20038;-63
2023/06/16 04:43:40;;;;;;;13.82;9.80;;;;;;;14.08;89.08;94007.44;5031751;28;20477;-59
2023/06/16 04:46:07;;;;;;;12.27;8.88;;;;;;;14.04;90.67;94006.75;5009700;28;20049;-65
2023/06/16 04:48:33;;;;;;;15.20;9.07;;;;;;;13.73;91.80;94001.66;5031565;28;20037;-55
2023/06/16 04:51:01;;;;;;;11.30;8.98;;;;;;;13.40;94.13;94000.94;5008568;28;20400;-57
2023/06/16 04:53:28;;;;;;;13.45;9.57;;;;;;;13.39;95.40;94002.91;5017513;28;20046;-59
2023/06/16 04:55:55;;;;;;;13.63;9.10;;;;;;;13.32;95.80;94005.84;5024735;28;20092;-58
2023/06/16 04:58:22;;;;;;;13.25;9.38;;;;;;;13.40;96.28;94006.44;5030712;28;20075;-62
2023/06/16 05:00:50;;;;;;;11.67;9.30;;;;;;;13.31;96.78;94001.53;5030966;28;20041;-58
2023/06/16 05:03:17;;;;;;;12.63;9.45;;;;;;;13.23;97.64;94000.13;4998921;28;20388;-62
2023/06/16 05:05:44;;;;;;;13.00;9.75;;;;;;;13.57;96.04;93996.94;5002688;28;20048;-55
2023/06/16 05:08:11;;;;;;;15.18;9.30;;;;;;;13.81;94.25;94001.47;5010472;28;20042;-58
2023/06/16 05:10:38;;;;;;;12.55;9.23;;;;;;;14.06;93.92;93993.28;5011364;28;20143;-57
2023/06/16 05:13:05;;;;;;;13.50;9.27;;;;;;;14.25;92.74;93999.13;5010376;28;20367;-58
2023/06/16 05:15:32;;;;;;;13.52;9.70;;;;;;;14.98;89.12;93991.06;5010525;28;20402;-64
2023/06/16 05:17:59;;;;;;;12.85;9.63;;;;;;;15.00;87.94;93990.63;5008886;28;20113;-59
2023/06/16 05:20:26;;;;;;;12.27;9.60;;;;;;;15.81;83.72;93993.94;5009937;28;20038;-58
2023/06/16 05:22:52;;;;;;;13.45;9.30;;;;;;;16.06;81.19;93991.09;5017894;28;20044;-56
2023/06/16 05:25:19;;;;;;;13.10;9.27;;;;;;;16.30;79.49;93996.97;5030171;28;20317;-59
2023/06/16 05:27:46;;;;;;;12.10;9.40;;;;;;;17.46;75.42;93996.94;5030620;28;20449;-58
2023/06/16 05:30:13;;;;;;;16.60;9.77;;;;;;;19.60;64.27;93987.88;5021882;28;20460;-59
2023/06/16 05:32:40;;;;;;;11.32;8.68;;;;;;;20.55;59.35;93989.06;5009697;28;20041;-59
2023/06/16 05:35:07;;;;;;;10.10;8.80;;;;;;;21.27;55.50;93990.00;5009167;28;20075;-58
2023/06/16 05:37:34;;;;;;;10.37;8.67;;;;;;;21.60;53.75;93983.44;5007436;28;20057;-56
2023/06/16 05:40:01;;;;;;;12.88;8.88;;;;;;;22.81;50.01;93985.91;5008982;28;20077;-57
2023/06/16 05:42:27;;;;;;;9.73;8.27;;;;;;;23.11;47.51;93987.22;5001880;28;20120;-61
2023/06/16 05:44:54;;;;;;;9.88;8.07;;;;;;;24.56;43.28;93984.28;5009769;28;20061;-61
2023/06/16 05:47:21;;;;;;;13.27;8.95;;;;;;;23.63;42.70;93994.75;5009978;28;20044;-60
2023/06/16 05:49:48;;;;;;;10.80;8.10;;;;;;;25.46;40.85;93987.22;5010205;28;20049;-56
2023/06/16 05:52:15;;;;;;;10.77;8.70;;;;;;;25.78;39.55;93992.56;5018174;28;20044;-56
2023/06/16 05:54:42;;;;;;;9.70;8.70;;;;;;;26.42;38.87;93993.41;5010219;28;20383;-61
2023/06/16 05:57:08;;;;;;;10.43;8.88;;;;;;;26.56;36.50;93990.75;5019673;28;20534;-59
2023/06/16 05:59:36;;;;;;;9.88;8.07;;;;;;;26.79;37.09;93997.09;5022071;28;20037;-58
2023/06/16 06:02:03;;;;;;;9.33;8.30;;;;;;;26.51;37.50;93997.97;4999532;28;20426;-56
2023/06/16 06:04:31;;;;;;;12.13;8.30;;;;;;;27.71;35.75;93996.69;4990728;28;20046;-56
2023/06/16 06:06:59;;;;;;;9.82;7.95;;;;;;;28.98;32.80;93997.06;5006578;28;20056;-56
2023/06/16 06:09:25;;;;;;;8.82;7.63;;;;;;;28.18;33.59;94001.38;5021674;28;20052;-56
2023/06/16 06:11:52;;;;;;;8.32;7.53;;;;;;;28.35;33.33;94006.81;5028587;28;20077;-63
2023/06/16 06:14:20;;;;;;;8.40;7.30;;;;;;;29.02;32.47;94000.31;5004274;28;20042;-56
2023/06/16 06:16:47;;;;;;;9.15;7.30;;;;;;;29.42;30.99;93994.88;5024884;28;20045;-57
2023/06/16 06:19:16;;;;;;;11.95;9.10;;;;;;;28.09;33.00;93997.63;5002221;28;20157;-57
2023/06/16 06:21:43;;;;;;;9.82;8.02;;;;;;;28.78;31.91;94000.41;5024823;28;20048;-63
2023/06/16 06:24:10;;;;;;;9.57;8.00;;;;;;;29.48;31.69;94000.44;5015365;28;20425;-62
2023/06/16 06:26:38;;;;;;;9.70;7.00;;;;;;;30.54;30.15;93996.25;5004422;28;20047;-56
2023/06/16 06:29:05;;;;;;;9.45;7.35;;;;;;;29.01;31.42;94010.09;4988280;28;20048;-56
2023/06/16 06:31:33;;;;;;;9.98;8.05;;;;;;;28.73;32.55;94015.38;4992601;28;20042;-56
2023/06/16 06:33:59;;;;;;;9.25;7.47;;;;;;;30.26;30.52;94011.69;5009168;28;20054;-58
2023/06/16 06:36:28;;;;;;;8.25;7.13;;;;;;;30.83;29.78;94012.13;5009196;28;20042;-62
2023/06/16 06:38:55;;;;;;;9.17;7.40;;;;;;;29.59;30.11;94013.63;5014845;28;20054;-59
2023/06/16 06:41:23;;;;;;;9.18;6.63;;;;;;;30.65;28.51;94013.78;5028705;28;20047;-57
2023/06/16 06:43:52;;;;;;;8.07;7.20;;;;;;;29.81;29.33;94021.00;5028031;28;20509;-56
2023/06/16 06:46:19;;;;;;;9.13;7.15;;;;;;;27.17;32.49;94017.84;5028702;28;20383;-57
2023/06/16 06:48:46;;;;;;;8.75;6.97;;;;;;;30.28;28.70;94014.75;5022761;28;20095;-58
2023/06/16 06:51:14;;;;;;;11.43;9.10;;;;;;;31.33;27.51;94015.19;5000811;28;20045;-61
2023/06/16 06:53:41;;;;;;;10.23;7.38;;;;;;;31.21;27.54;94011.84;5024339;28;20051;-57
2023/06/16 06:56:08;;;;;;;8.90;6.40;;;;;;;32.85;26.04;94019.03;5007873;28;20058;-57
2023/06/16 06:58:35;;;;;;;9.70;6.30;;;;;;;33.47;25.06;94017.19;5028795;28;20118;-62
2023/06/16 07:01:02;;;;;;;9.05;6.38;;;;;;;34.12;23.90;94019.00;5028704;28;20354;-57
2023/06/16 07:03:28;;;;;;;9.80;6.07;;;;;;;32.67;25.47;94025.78;5028969;28;20409;-62
2023/06/16 07:05:56;;;;;;;8.23;5.88;;;;;;;34.70;23.43;94016.50;5028650;28;20134;-58
2023/06/16 07:08:22;;;;;;;8.48;6.30;;;;;;;34.02;23.63;94022.41;5029202;28;20065;-57
2023/06/16 07:10:49;;;;;;;6.97;5.57;;;;;;;34.15;23.87;94024.34;5029064;28;20038;-57
2023/06/16 07:13:16;;;;;;;6.82;5.65;;;;;;;35.46;22.38;94021.16;5028346;28;20053;-64
2023/06/16 07:15:43;;;;;;;8.13;5.83;;;;;;;30.54;27.43;94024.56;5028826;28;20049;-59
2023/06/16 07:18:10;;;;;;;8.05;5.93;;;;;;;32.80;25.51;94028.47;5016296;28;20053;-64
2023/06/16 07:20:37;;;;;;;8.13;5.70;;;;;;;32.05;25.88;94022.50;5002582;28;20457;-58
2023/06/16 07:23:04;;;;;;;7.35;5.85;;;;;;;33.25;24.23;94029.28;4989238;28;20177;-57
2023/06/16 07:25:32;;;;;;;7.40;6.60;;;;;;;30.71;26.75;94032.72;4989561;28;20057;-57
2023/06/16 07:27:59;;;;;;;7.00;6.10;;;;;;;30.14;26.82;94033.03;4988874;28;20402;-58
2023/06/16 07:30:26;;;;;;;7.55;6.13;;;;;;;30.51;27.28;94028.50;5002201;28;20049;-61
2023/06/16 07:32:53;;;;;;;9.13;6.43;;;;;;;32.42;24.93;94026.19;5014281;28;20033;-58
2023/06/16 07:35:20;;;;;;;9.40;6.22;;;;;;;32.36;25.07;94034.84;5016414;28;20046;-58
2023/06/16 07:37:47;;;;;;;9.13;5.90;;;;;;;33.42;23.60;94032.34;5026824;28;20049;-60
2023/06/16 07:40:13;;;;;;;10.07;6.50;;;;;;;31.40;25.36;94034.34;4995461;28;20042;-57
2023/06/16 07:42:45;;;;;;;11.55;6.07;;;;;;;34.56;22.52;94019.53;5007119;28;20056;-58
2023/06/16 07:45:13;;;;;;;8.93;6.05;;;;;;;31.55;25.02;94033.00;4989013;28;20050;-61
2023/06/16 07:47:40;;;;;;;6.88;5.53;;;;;;;32.08;24.26;94026.31;5008571;28;20399;-57
2023/06/16 07:50:08;;;;;;;7.03;5.78;;;;;;;29.27;27.56;94029.25;5027879;28;20130;-57
2023/06/16 07:52:35;;;;;;;7.33;5.37;;;;;;;33.31;22.95;94022.09;5027048;28;20116;-58
2023/06/16 07:55:02;;;;;;;8.07;5.20;;;;;;;33.22;21.26;94017.72;5027816;28;20042;-64
2023/06/16 07:57:28;;;;;;;7.05;4.80;;;;;;;30.89;21.69;94017.72;5028572;28;20038;-60
2023/06/16 07:59:57;;;;;;;9.70;5.30;;;;;;;32.05;21.34;94016.81;4997356;28;20438;-62
2023/06/16 08:02:23;;;;;;;8.88;5.13;;;;;;;33.00;20.30;94015.50;5013146;28;20046;-59
2023/06/16 08:04:51;;;;;;;7.20;4.80;;;;;;;35.05;17.69;94011.03;5020037;28;20080;-66
2023/06/16 08:07:17;;;;;;;10.25;4.80;;;;;;;35.54;17.30;94009.69;4998235;28;20038;-59
2023/06/16 08:09:44;;;;;;;9.07;4.70;;;;;;;33.31;18.34;94019.25;5008459;28;20030;-59
2023/06/16 08:12:11;;;;;;;9.13;4.88;;;;;;;31.99;19.62;94014.09;5008027;28;20049;-64
2023/06/16 08:14:38;;;;;;;8.57;4.72;;;;;;;30.60;20.68;94008.97;5006938;28;20475;-59
2023/06/16 08:17:05;;;;;;;7.53;4.40;;;;;;;34.06;17.99;94018.44;4989075;28;20056;-66
2023/06/16 08:19:32;;;;;;;8.15;4.40;;;;;;;34.16;17.46;94013.69;5008485;28;20049;-59
2023/06/16 08:21:59;;;;;;;8.40;4.40;;;;;;;34.30;17.25;94017.84;5024253;28;20355;-59
2023/06/16 08:24:26;;;;;;;7.00;4.20;;;;;;;35.29;16.29;94003.91;5028361;28;20038;-59
2023/06/16 08:26:56;;;;;;;8.68;4.60;;;;;;;32.37;19.03;94007.19;5027855;28;20476;-59
2023/06/16 08:29:22;;;;;;;9.93;4.60;;;;;;;28.21;21.87;94020.03;5010096;28;20038;-59
2023/06/16 08:31:49;;;;;;;6.40;4.78;;;;;;;29.40;21.33;94016.47;5003278;28;20044;-58
2023/06/16 08:34:16;;;;;;;7.93;4.63;;;;;;;32.55;18.74;94011.13;5006641;28;20042;-58
2023/06/16 08:36:43;;;;;;;7.28;4.47;;;;;;;31.11;19.24;94012.84;4995181;28;20046;-58
2023/06/16 08:39:09;;;;;;;8.52;4.80;;;;;;;27.72;22.55;94011.53;4988677;28;20058;-57
2023/06/16 08:41:37;;;;;;;12.73;5.13;;;;;;;26.87;23.29;94014.97;5005609;28;20518;-58
2023/06/16 08:44:07;;;;;;;10.50;5.18;;;;;;;27.46;21.95;94010.72;5007683;28;20099;-58
2023/06/16 08:46:35;;;;;;;7.53;5.40;;;;;;;26.46;23.63;94004.38;5021788;28;20148;-58
2023/06/16 08:49:03;;;;;;;6.55;4.82;;;;;;;27.75;22.91;94004.84;4999273;28;20052;-58
2023/06/16 08:51:34;;;;;;;8.07;5.22;;;;;;;25.96;23.52;94008.09;5018254;28;20382;-59
2023/06/16 08:54:06;;;;;;;9.53;5.10;;;;;;;28.23;21.93;94001.31;5023376;28;20079;-58
2023/06/16 08:56:33;;;;;;;9.68;5.38;;;;;;;30.09;19.91;93997.13;5005003;28;20050;-63
2023/06/16 08:59:01;;;;;;;14.50;5.28;;;;;;;28.05;21.37;94002.78;4993030;28;20453;-59
2023/06/16 09:01:29;;;;;;;8.88;4.80;;;;;;;29.89;19.50;93992.84;5016447;28;20683;-62
2023/06/16 09:03:56;;;;;;;7.82;5.00;;;;;;;29.23;20.45;93986.41;5011587;28;20046;-59
2023/06/16 09:06:25;;;;;;;8.73;5.17;;;;;;;28.16;21.32;93989.84;5021130;28;20034;-59
2023/06/16 09:08:54;;;;;;;7.38;5.40;;;;;;;27.92;21.86;93991.38;5029672;28;20040;-58
2023/06/16 09:11:23;;;;;;;7.20;5.22;;;;;;;28.29;21.05;93987.13;5030310;28;21734;-62
2023/06/16 09:13:52;;;;;;;7.65;5.28;;;;;;;30.47;19.22;93980.69;5020306;28;20050;-64
2023/06/16 09:16:21;;;;;;;9.98;5.45;;;;;;;28.45;21.69;93989.00;4990255;28;21495;-61
2023/06/16 09:18:49;;;;;;;6.77;5.53;;;;;;;29.89;20.81;93973.78;4991539;28;20072;-59
2023/06/16 09:21:24;;;;;;;7.60;5.15;;;;;;;30.51;20.39;93983.19;4991561;28;20046;-58
2023/06/16 09:23:58;;;;;;;7.90;5.47;;;;;;;30.64;19.62;93977.50;5037603;28;20061;-62
2023/06/16 09:26:30;;;;;;;7.18;5.43;;;;;;;27.91;20.72;93987.03;5015517;28;20046;-57
2023/06/16 09:28:57;;;;;;;7.60;5.57;;;;;;;29.57;19.73;93990.78;5020166;28;20454;-57
2023/06/16 09:31:27;;;;;;;8.63;4.93;;;;;;;31.28;17.78;93984.88;5027365;28;20466;-57
2023/06/16 09:34:04;;;;;;;7.25;5.10;;;;;;;31.24;17.92;93975.94;5030286;28;20071;-56
2023/06/16 09:36:31;;;;;;;10.07;5.13;;;;;;;31.96;16.96;93986.06;5023729;28;20042;-57
2023/06/16 09:38:58;;;;;;;7.38;5.32;;;;;;;31.51;18.22;93979.47;5008638;28;20050;-60
2023/06/16 09:41:25;;;;;;;10.15;5.63;;;;;;;26.41;22.84;93986.22;5003890;28;20050;-57
2023/06/16 09:43:52;;;;;;;8.83;5.60;;;;;;;26.82;23.64;93993.22;5015330;28;20044;-55
2023/06/16 09:46:19;;;;;;;9.00;5.75;;;;;;;25.40;25.15;93990.03;5030184;28;20102;-60
2023/06/16 09:48:50;;;;;;;10.13;5.53;;;;;;;25.15;25.54;93988.19;5030285;28;20038;-57
2023/06/16 09:51:20;;;;;;;8.65;5.72;;;;;;;25.12;25.95;93987.19;5029414;28;21646;-62
2023/06/16 09:53:47;;;;;;;11.80;5.90;;;;;;;25.12;26.40;93993.56;5013614;28;20116;-64
2023/06/16 09:56:15;;;;;;;8.60;5.97;;;;;;;24.25;27.71;94002.78;5020758;28;20048;-58
2023/06/16 09:58:43;;;;;;;10.15;6.18;;;;;;;23.93;28.67;94003.63;5016610;28;20054;-59
2023/06/16 10:01:13;;;;;;;8.90;5.90;;;;;;;23.11;30.01;94003.25;5014536;28;20094;-62
2023/06/16 10:03:43;;;;;;;9.00;6.47;;;;;;;22.69;30.68;94008.19;5030443;28;20041;-60
2023/06/16 10:06:19;;;;;;;8.38;5.80;;;;;;;23.32;29.94;94007.53;5029529;28;20418;-58
2023/06/16 10:08:48;;;;;;;10.03;6.00;;;;;;;23.61;30.03;94002.88;5027669;28;20060;-61
2023/06/16 10:11:16;;;;;;;9.05;5.70;;;;;;;23.81;30.00;94010.44;4992443;28;20042;-61
2023/06/16 10:13:56;;;;;;;8.45;5.55;;;;;;;23.59;30.67;94008.22;5009953;28;20064;-62
2023/06/16 10:16:29;;;;;;;8.02;5.40;;;;;;;23.70;30.64;94007.53;5007238;28;20660;-58
2023/06/16 10:19:00;;;;;;;8.63;5.57;;;;;;;23.76;30.56;94005.53;5024027;28;20057;-57
2023/06/16 10:21:28;;;;;;;8.27;5.70;;;;;;;23.67;31.19;94008.53;5029918;28;20090;-57
2023/06/16 10:23:55;;;;;;;12.80;6.30;;;;;;;22.59;33.31;94003.25;4995432;28;20331;-60
2023/06/16 10:26:22;;;;;;;8.88;6.18;;;;;;;23.08;32.71;94016.22;4990323;28;20361;-61
2023/06/16 10:28:50;;;;;;;8.95;6.05;;;;;;;23.34;32.50;94015.41;5022376;28;20046;-57
2023/06/16 10:31:18;;;;;;;8.20;5.80;;;;;;;23.84;31.62;94011.47;5013259;28;20447;-58
2023/06/16 10:33:52;;;;;;;7.27;5.60;;;;;;;23.80;31.58;94013.72;5001524;28;20495;-58
2023/06/16 10:36:27;;;;;;;7.88;5.88;;;;;;;23.49;32.11;94012.47;5010621;28;21751;-60
2023/06/16 10:39:01;;;;;;;12.32;5.90;;;;;;;24.10;31.35;94005.75;5028430;28;20346;-58
2023/06/16 10:41:31;;;;;;;10.85;5.78;;;;;;;23.01;32.24;94011.03;5026934;28;20118;-59
2023/06/16 10:44:22;;;;;;;8.20;5.90;;;;;;;23.51;31.51;94004.34;4990264;28;20046;-57
2023/06/16 10:47:10;;;;;;;8.73;5.80;;;;;;;24.23;30.41;93999.69;4988560;28;20049;-58
2023/06/16 10:49:57;;;;;;;10.45;6.13;;;;;;;24.61;29.51;93998.34;5002116;28;21046;-59
2023/06/16 10:52:42;;;;;;;8.73;5.95;;;;;;;23.29;30.94;93996.53;5016004;28;20609;-62
2023/06/16 10:55:36;;;;;;;8.73;6.10;;;;;;;22.94;31.94;94006.66;5027989;28;20049;-64
2023/06/16 10:58:20;;;;;;;10.13;6.00;;;;;;;24.55;30.45;93988.34;5026343;28;20112;-57
2023/06/16 11:01:02;;;;;;;7.33;5.50;;;;;;;24.31;29.42;93989.53;4992587;28;20646;-60
2023/06/16 11:03:43;;;;;;;10.10;6.20;;;;;;;24.58;28.42;93987.34;5024095;28;20072;-59
2023/06/16 11:06:11;;;;;;;9.82;5.80;;;;;;;25.30;27.99;93983.13;5028002;28;20403;-59
2023/06/16 11:08:49;;;;;;;9.00;5.53;;;;;;;24.24;28.96;93976.75;4998996;28;20045;-65
2023/06/16 11:11:16;;;;;;;8.43;5.80;;;;;;;24.80;28.26;93976.16;5011579;28;20045;-60
2023/06/16 11:13:43;;;;;;;9.70;5.30;;;;;;;25.06;27.63;93978.75;5013051;28;20046;-64
2023/06/16 11:16:10;;;;;;;9.20;5.40;;;;;;;24.58;28.64;93976.13;5007997;28;20353;-61
2023/06/16 11:18:38;;;;;;;9.10;6.00;;;;;;;25.52;27.85;93979.56;5024047;28;20409;-57
2023/06/16 11:21:06;;;;;;;9.65;5.85;;;;;;;24.82;27.78;93984.09;5027231;28;20045;-58
2023/06/16 11:23:38;;;;;;;9.32;6.10;;;;;;;24.29;26.72;93989.28;5027755;28;20087;-65
2023/06/16 11:26:10;;;;;;;8.63;5.63;;;;;;;25.89;25.03;93984.84;5026008;28;20116;-63
2023/06/16 11:28:40;;;;;;;10.02;5.47;;;;;;;25.41;27.68;93987.97;4994145;28;20050;-63
2023/06/16 11:31:09;;;;;;;18.65;6.38;;;;;;;25.82;27.15;93984.63;5024082;28;20053;-57
2023/06/16 11:33:37;;;;;;;11.57;5.93;;;;;;;25.37;29.06;93985.41;5026091;28;20056;-56